Time;durP1;ratioP1;P1;durP2;ratioP2;P2;SDS_P1;SDS_P2;PMS_P1;PMS_P2;Temp;Humidity;BMP_temperature;BMP_pressure;BME280_temperature;BME280_humidity;BME280_pressure;Samples;Min_cycle;Max_cycle;Signal;HPM_P1;HPM_P2
2021/06/05 00:01:23;;;;;;;20.85;6.57;;;17.90;99.90;;;;;;5097424;28;20099;-66
2021/06/05 00:03:52;;;;;;;19.60;5.47;;;17.80;99.90;;;;;;5096746;28;20024;-63
2021/06/05 00:06:21;;;;;;;16.58;6.03;;;17.80;99.90;;;;;;5096749;28;20059;-63
2021/06/05 00:08:49;;;;;;;10.18;5.40;;;17.70;99.90;;;;;;5096545;28;20046;-63
2021/06/05 00:11:18;;;;;;;12.25;5.40;;;17.70;99.90;;;;;;5096689;28;20420;-63
2021/06/05 00:13:50;;;;;;;16.02;5.72;;;17.70;99.90;;;;;;5078757;28;20059;-63
2021/06/05 00:16:22;;;;;;;19.67;6.55;;;17.60;99.90;;;;;;5096647;28;20020;-63
2021/06/05 00:18:50;;;;;;;12.40;5.28;;;17.60;99.90;;;;;;5097186;28;20043;-63
2021/06/05 00:21:20;;;;;;;13.00;5.20;;;17.60;99.90;;;;;;5098183;28;20035;-63
2021/06/05 00:23:47;;;;;;;18.35;6.22;;;17.50;99.90;;;;;;5097445;28;20035;-63
2021/06/05 00:26:16;;;;;;;11.63;4.85;;;17.50;99.90;;;;;;5076052;28;20348;-63
2021/06/05 00:28:43;;;;;;;16.35;6.05;;;17.40;99.90;;;;;;5077218;28;20021;-63
2021/06/05 00:31:11;;;;;;;15.13;5.72;;;17.40;99.90;;;;;;5077967;28;20020;-63
2021/06/05 00:33:39;;;;;;;16.92;5.13;;;17.30;99.90;;;;;;5077262;28;20052;-63
2021/06/05 00:36:09;;;;;;;12.93;5.53;;;17.20;99.90;;;;;;5076534;28;20050;-63
2021/06/05 00:38:37;;;;;;;13.10;5.00;;;17.10;99.90;;;;;;5076203;28;20024;-63
2021/06/05 00:41:08;;;;;;;21.05;5.53;;;17.00;99.90;;;;;;5075262;28;20032;-63
2021/06/05 00:43:41;;;;;;;10.32;5.63;;;16.80;99.90;;;;;;5076155;28;20024;-63
2021/06/05 00:46:08;;;;;;;18.55;5.97;;;16.70;99.90;;;;;;5076175;28;20024;-63
2021/06/05 00:48:36;;;;;;;18.55;5.32;;;16.60;99.90;;;;;;5076100;28;20024;-63
2021/06/05 00:51:07;;;;;;;18.13;5.25;;;16.60;99.90;;;;;;5076299;28;20056;-63
2021/06/05 00:53:35;;;;;;;8.32;5.47;;;16.60;99.90;;;;;;5076086;28;20028;-63
2021/06/05 00:56:08;;;;;;;16.05;6.45;;;16.50;99.90;;;;;;5078210;28;20126;-63
2021/06/05 00:58:36;;;;;;;11.77;5.20;;;16.50;99.90;;;;;;5081124;28;20417;-63
2021/06/05 01:01:17;;;;;;;11.55;5.05;;;16.50;99.90;;;;;;5081352;28;20036;-63
2021/06/05 01:03:46;;;;;;;16.95;7.03;;;16.40;99.90;;;;;;5081264;28;20020;-63
2021/06/05 01:06:42;;;;;;;12.20;5.20;;;16.30;99.90;;;;;;5080745;28;20103;-63
2021/06/05 01:09:35;;;;;;;10.15;5.82;;;16.30;99.90;;;;;;5079485;28;20120;-63
2021/06/05 01:12:07;;;;;;;12.10;5.47;;;16.20;99.90;;;;;;5080823;28;20021;-63
2021/06/05 01:14:41;;;;;;;20.73;6.43;;;16.20;99.90;;;;;;5080186;28;20031;-63
2021/06/05 01:17:31;;;;;;;11.27;5.78;;;16.30;99.90;;;;;;5079549;28;20070;-63
2021/06/05 01:20:10;;;;;;;20.40;5.60;;;16.40;99.90;;;;;;5079508;28;20104;-63
2021/06/05 01:23:03;;;;;;;11.48;5.15;;;16.40;99.90;;;;;;5079437;28;20031;-63
2021/06/05 01:25:54;;;;;;;12.07;4.63;;;16.50;99.90;;;;;;5092020;28;20450;-63
2021/06/05 01:28:44;;;;;;;14.63;5.20;;;16.50;99.90;;;;;;5100253;28;20017;-63
2021/06/05 01:31:34;;;;;;;16.38;4.90;;;16.40;99.90;;;;;;5099976;28;20021;-63
2021/06/05 01:34:01;;;;;;;10.65;5.13;;;16.30;99.90;;;;;;5101170;28;20073;-63
2021/06/05 01:36:29;;;;;;;14.10;5.50;;;16.30;99.90;;;;;;5100940;28;20020;-63
2021/06/05 01:39:01;;;;;;;15.05;5.38;;;16.30;99.90;;;;;;5100860;28;20024;-63
2021/06/05 01:41:32;;;;;;;9.63;4.20;;;16.30;99.90;;;;;;5100111;28;20073;-63
2021/06/05 01:44:01;;;;;;;12.88;5.25;;;16.40;99.90;;;;;;5100696;28;20027;-63
2021/06/05 01:46:33;;;;;;;10.30;5.75;;;16.40;99.90;;;;;;5100144;28;20130;-63
2021/06/05 01:49:01;;;;;;;13.15;5.13;;;16.40;99.90;;;;;;5100030;28;20054;-63
2021/06/05 01:51:30;;;;;;;13.15;5.45;;;16.40;99.90;;;;;;5099188;28;20362;-63
2021/06/05 01:54:07;;;;;;;18.80;5.70;;;16.40;99.90;;;;;;5099264;28;20094;-63
2021/06/05 01:56:57;;;;;;;15.45;5.30;;;16.40;99.90;;;;;;5099133;28;20012;-63
2021/06/05 01:59:25;;;;;;;9.90;4.97;;;16.40;99.90;;;;;;5098960;28;20435;-63
2021/06/05 02:01:52;;;;;;;7.45;5.07;;;16.40;99.90;;;;;;5081057;28;20032;-63
2021/06/05 02:04:20;;;;;;;8.95;5.70;;;16.50;99.90;;;;;;5099372;28;20024;-63
2021/06/05 02:06:50;;;;;;;18.27;6.57;;;16.50;99.90;;;;;;5098263;28;20020;-63
2021/06/05 02:09:22;;;;;;;9.63;5.93;;;16.50;99.90;;;;;;5099248;28;20400;-63
2021/06/05 02:12:00;;;;;;;11.25;5.75;;;16.50;99.90;;;;;;5099743;28;20020;-63
2021/06/05 02:14:36;;;;;;;11.57;5.68;;;16.60;99.90;;;;;;5100193;28;20294;-63
2021/06/05 02:17:09;;;;;;;11.30;5.70;;;16.60;99.90;;;;;;5099692;28;20340;-63
2021/06/05 02:19:48;;;;;;;16.30;5.43;;;16.50;99.90;;;;;;5100309;28;20034;-63
2021/06/05 02:22:23;;;;;;;9.57;5.40;;;16.60;99.90;;;;;;5099471;28;20016;-63
2021/06/05 02:24:58;;;;;;;16.77;6.28;;;16.50;99.90;;;;;;5099306;28;20040;-63
2021/06/05 02:27:28;;;;;;;8.27;5.25;;;16.50;99.90;;;;;;5099205;28;20016;-63
2021/06/05 02:29:56;;;;;;;9.52;5.55;;;16.60;99.90;;;;;;5099055;28;20396;-63
2021/06/05 02:32:28;;;;;;;13.50;5.75;;;16.60;99.90;;;;;;5098430;28;20020;-63
2021/06/05 02:34:57;;;;;;;12.73;5.80;;;16.60;99.90;;;;;;5098894;28;20023;-63
2021/06/05 02:37:30;;;;;;;18.70;6.30;;;16.60;99.90;;;;;;5098148;28;20016;-63
2021/06/05 02:40:01;;;;;;;18.45;5.85;;;16.60;99.90;;;;;;5098179;28;20031;-63
2021/06/05 02:42:29;;;;;;;14.10;6.05;;;16.50;99.90;;;;;;5098140;28;20128;-63
2021/06/05 02:44:58;;;;;;;14.00;6.30;;;16.40;99.90;;;;;;5080983;28;20016;-63
2021/06/05 02:47:28;;;;;;;13.25;6.85;;;16.40;99.90;;;;;;5098697;28;20024;-63
2021/06/05 02:50:01;;;;;;;14.75;5.97;;;16.40;99.90;;;;;;5099507;28;20027;-63
2021/06/05 02:52:34;;;;;;;11.02;6.60;;;16.40;99.90;;;;;;5099035;28;20031;-63
2021/06/05 02:55:17;;;;;;;13.45;6.32;;;16.50;99.90;;;;;;5099458;28;20012;-63
2021/06/05 02:57:45;;;;;;;16.52;6.60;;;16.50;99.90;;;;;;5098929;28;20479;-63
2021/06/05 03:00:20;;;;;;;8.27;6.03;;;16.60;99.90;;;;;;5099044;28;20054;-63
2021/06/05 03:02:48;;;;;;;14.07;6.17;;;16.50;99.90;;;;;;5099490;28;20023;-63
2021/06/05 03:05:16;;;;;;;10.27;6.47;;;16.50;99.90;;;;;;5063727;28;20050;-63
2021/06/05 03:07:44;;;;;;;11.00;6.15;;;16.50;99.90;;;;;;5097626;28;20039;-63
2021/06/05 03:10:13;;;;;;;12.48;6.43;;;16.40;99.90;;;;;;5079657;28;20351;-63
2021/06/05 03:12:42;;;;;;;9.00;6.53;;;16.40;99.90;;;;;;5098035;28;20078;-63
2021/06/05 03:15:11;;;;;;;11.68;6.70;;;16.40;99.90;;;;;;5098155;28;20027;-63
2021/06/05 03:17:39;;;;;;;12.40;6.80;;;16.40;99.90;;;;;;5097570;28;20103;-63
2021/06/05 03:20:12;;;;;;;13.15;6.78;;;16.50;99.90;;;;;;5097367;28;20043;-63
2021/06/05 03:22:40;;;;;;;9.02;5.68;;;16.50;99.90;;;;;;5079524;28;20038;-63
2021/06/05 03:25:09;;;;;;;17.02;6.68;;;16.50;99.90;;;;;;5097613;28;20048;-63
2021/06/05 03:27:37;;;;;;;12.05;5.40;;;16.60;99.90;;;;;;5080238;28;20020;-63
2021/06/05 03:30:06;;;;;;;10.77;5.70;;;16.70;99.90;;;;;;5098883;28;20027;-63
2021/06/05 03:32:34;;;;;;;10.13;5.40;;;16.70;99.90;;;;;;5098130;28;20439;-63
2021/06/05 03:35:01;;;;;;;14.10;6.90;;;16.80;99.90;;;;;;5098880;28;20024;-63
2021/06/05 03:37:29;;;;;;;12.05;6.40;;;16.90;99.90;;;;;;5098546;28;20031;-63
2021/06/05 03:39:58;;;;;;;13.65;5.63;;;16.90;99.90;;;;;;5098159;28;20024;-63
2021/06/05 03:42:25;;;;;;;10.32;5.95;;;17.00;99.90;;;;;;5097791;28;20023;-63
2021/06/05 03:44:56;;;;;;;14.55;5.65;;;17.00;99.90;;;;;;5079301;28;20031;-63
2021/06/05 03:47:25;;;;;;;11.55;5.35;;;17.10;99.90;;;;;;5096820;28;20016;-63
2021/06/05 03:49:53;;;;;;;11.82;6.10;;;17.10;99.90;;;;;;5097561;28;20149;-63
2021/06/05 03:52:25;;;;;;;9.80;6.25;;;17.10;99.90;;;;;;5097135;28;20056;-63
2021/06/05 03:54:54;;;;;;;9.70;5.93;;;17.10;99.90;;;;;;5079185;28;20047;-63
2021/06/05 03:57:23;;;;;;;9.40;6.07;;;17.10;99.90;;;;;;5096725;28;20019;-63
2021/06/05 03:59:53;;;;;;;10.52;6.35;;;17.00;99.90;;;;;;5096854;28;20016;-63
2021/06/05 04:02:22;;;;;;;11.82;6.55;;;17.00;99.90;;;;;;5096848;28;20416;-63
2021/06/05 04:04:51;;;;;;;15.20;6.28;;;17.00;99.90;;;;;;5098112;28;20044;-63
2021/06/05 04:07:20;;;;;;;11.57;6.22;;;17.00;99.90;;;;;;5097541;28;20020;-63
2021/06/05 04:09:48;;;;;;;8.73;6.53;;;17.00;99.90;;;;;;5097879;28;20348;-63
2021/06/05 04:12:16;;;;;;;11.55;6.28;;;17.10;99.90;;;;;;5097605;28;20023;-63
2021/06/05 04:14:43;;;;;;;15.68;6.85;;;17.20;99.90;;;;;;5079809;28;20387;-63
2021/06/05 04:17:12;;;;;;;11.25;6.00;;;17.20;99.90;;;;;;5097496;28;20040;-63
2021/06/05 04:19:40;;;;;;;17.35;6.75;;;17.30;99.90;;;;;;5098093;28;20032;-63
2021/06/05 04:22:09;;;;;;;12.20;6.78;;;17.40;99.90;;;;;;5096738;28;20142;-63
2021/06/05 04:24:38;;;;;;;7.75;6.07;;;17.50;99.90;;;;;;5096455;28;20090;-63
2021/06/05 04:27:08;;;;;;;9.13;6.55;;;17.60;99.90;;;;;;5096558;28;20028;-63
2021/06/05 04:29:36;;;;;;;14.30;6.00;;;17.60;99.90;;;;;;5096734;28;20462;-63
2021/06/05 04:32:05;;;;;;;12.95;5.93;;;17.60;99.90;;;;;;5099913;28;20430;-63
2021/06/05 04:34:32;;;;;;;10.73;6.45;;;17.70;99.90;;;;;;5101246;28;20404;-63
2021/06/05 04:37:00;;;;;;;9.82;5.93;;;17.70;99.90;;;;;;5100463;28;20085;-63
2021/06/05 04:39:28;;;;;;;10.75;6.60;;;17.80;99.90;;;;;;5101077;28;20311;-64
2021/06/05 04:41:56;;;;;;;10.70;6.07;;;17.80;99.90;;;;;;5100859;28;20027;-64
2021/06/05 04:44:23;;;;;;;12.98;6.65;;;17.80;99.90;;;;;;5083387;28;20024;-64
2021/06/05 04:46:51;;;;;;;12.27;6.03;;;17.90;99.90;;;;;;5084035;28;20408;-63
2021/06/05 04:49:19;;;;;;;11.52;6.30;;;17.80;99.90;;;;;;5083389;28;20028;-63
2021/06/05 04:51:47;;;;;;;7.90;5.82;;;17.80;99.90;;;;;;5101156;28;20016;-63
2021/06/05 04:54:14;;;;;;;8.80;6.30;;;17.80;99.90;;;;;;5101886;28;20421;-64
2021/06/05 04:56:49;;;;;;;9.77;6.40;;;17.80;99.90;;;;;;5101311;28;20028;-64
2021/06/05 04:59:21;;;;;;;11.63;6.27;;;17.70;99.90;;;;;;5082852;28;20024;-64
2021/06/05 05:01:50;;;;;;;11.13;6.43;;;17.80;99.90;;;;;;5100076;28;20078;-64
2021/06/05 05:04:18;;;;;;;14.30;7.55;;;17.90;99.90;;;;;;5100785;28;20024;-64
2021/06/05 05:06:46;;;;;;;9.88;6.25;;;17.90;99.90;;;;;;5099982;28;20024;-64
2021/06/05 05:09:14;;;;;;;11.02;6.47;;;18.00;99.90;;;;;;5099912;28;20028;-67
2021/06/05 05:11:43;;;;;;;10.32;6.72;;;18.10;99.90;;;;;;5081948;28;20366;-64
2021/06/05 05:14:12;;;;;;;11.38;6.40;;;18.30;99.90;;;;;;5100676;28;20308;-65
2021/06/05 05:16:41;;;;;;;8.55;6.78;;;18.30;99.90;;;;;;5099832;28;20069;-65
2021/06/05 05:19:09;;;;;;;10.63;6.93;;;18.40;99.90;;;;;;5100302;28;20028;-64
2021/06/05 05:21:37;;;;;;;9.65;6.93;;;18.50;99.90;;;;;;5100346;28;20111;-64
2021/06/05 05:24:06;;;;;;;12.60;6.07;;;18.60;99.90;;;;;;5100240;28;20032;-65
2021/06/05 05:26:34;;;;;;;8.57;6.70;;;18.70;99.90;;;;;;5100573;28;20032;-65
2021/06/05 05:29:02;;;;;;;10.15;6.75;;;18.70;99.90;;;;;;5101024;28;20454;-65
2021/06/05 05:31:30;;;;;;;8.18;6.68;;;18.70;99.90;;;;;;5100499;28;20012;-63
2021/06/05 05:34:00;;;;;;;8.40;6.50;;;18.80;99.90;;;;;;5082451;28;20442;-64
2021/06/05 05:36:32;;;;;;;9.65;6.65;;;18.80;99.90;;;;;;5100158;28;20092;-66
2021/06/05 05:39:01;;;;;;;9.95;6.57;;;18.90;99.90;;;;;;5082469;28;20032;-66
2021/06/05 05:41:29;;;;;;;13.65;8.38;;;19.00;99.90;;;;;;5098816;28;20043;-68
2021/06/05 05:43:57;;;;;;;10.40;7.30;;;19.20;99.90;;;;;;5080420;28;20027;-63
2021/06/05 05:46:25;;;;;;;10.82;7.38;;;19.30;99.90;;;;;;5099210;28;20357;-64
2021/06/05 05:48:54;;;;;;;12.50;7.18;;;19.40;99.90;;;;;;5099686;28;20024;-63
2021/06/05 05:51:23;;;;;;;10.57;6.32;;;19.60;99.90;;;;;;5099409;28;20074;-62
2021/06/05 05:53:52;;;;;;;9.60;6.25;;;19.70;99.90;;;;;;5099337;28;20023;-67
2021/06/05 05:56:22;;;;;;;8.45;6.85;;;19.80;99.90;;;;;;5081162;28;20055;-63
2021/06/05 05:58:51;;;;;;;10.68;7.07;;;19.90;99.90;;;;;;5098974;28;20028;-63
2021/06/05 06:01:20;;;;;;;10.98;7.35;;;20.10;99.90;;;;;;5099755;28;20487;-63
2021/06/05 06:03:53;;;;;;;11.80;8.52;;;20.20;99.90;;;;;;5100105;28;20383;-62
2021/06/05 06:06:21;;;;;;;10.48;8.45;;;20.40;99.90;;;;;;5099856;28;20048;-62
2021/06/05 06:08:49;;;;;;;12.70;10.40;;;20.50;99.90;;;;;;5081690;28;20107;-62
2021/06/05 06:11:17;;;;;;;13.10;11.18;;;20.70;99.90;;;;;;5099671;28;20032;-62
2021/06/05 06:13:44;;;;;;;14.57;10.82;;;20.80;99.90;;;;;;5099924;28;20028;-62
2021/06/05 06:16:15;;;;;;;16.17;10.68;;;20.90;99.90;;;;;;5100098;28;20048;-61
2021/06/05 06:18:43;;;;;;;13.10;10.75;;;21.00;99.90;;;;;;5098996;28;20020;-61
2021/06/05 06:21:13;;;;;;;16.38;11.25;;;21.00;99.90;;;;;;5099232;28;20354;-61
2021/06/05 06:23:43;;;;;;;16.25;11.52;;;21.10;99.90;;;;;;5099083;28;20044;-64
2021/06/05 06:26:25;;;;;;;13.70;11.38;;;21.20;99.90;;;;;;5098247;28;20040;-64
2021/06/05 06:28:56;;;;;;;18.10;12.27;;;21.20;99.90;;;;;;5098348;28;20480;-64
2021/06/05 06:31:24;;;;;;;16.42;12.23;;;21.30;99.90;;;;;;5098418;28;20016;-64
2021/06/05 06:33:52;;;;;;;18.63;12.23;;;21.30;99.90;;;;;;5080488;28;20027;-64
2021/06/05 06:36:20;;;;;;;14.70;11.45;;;21.20;99.90;;;;;;5098315;28;20059;-64
2021/06/05 06:38:50;;;;;;;18.63;13.52;;;21.20;99.90;;;;;;5098490;28;20423;-64
2021/06/05 06:41:24;;;;;;;16.42;12.85;;;21.10;99.90;;;;;;5099197;28;20032;-64
2021/06/05 06:43:52;;;;;;;18.80;13.25;;;21.10;99.90;;;;;;5099695;28;20098;-64
2021/06/05 06:46:26;;;;;;;17.00;12.45;;;21.10;99.90;;;;;;5099110;28;20024;-64
2021/06/05 06:48:56;;;;;;;14.43;11.88;;;21.10;99.90;;;;;;5098983;28;20024;-64
2021/06/05 06:51:25;;;;;;;22.10;14.75;;;21.10;99.90;;;;;;5099310;28;20035;-64
2021/06/05 06:53:53;;;;;;;16.52;13.23;;;21.20;99.90;;;;;;5098441;28;20380;-64
2021/06/05 06:56:21;;;;;;;21.75;14.13;;;21.20;99.90;;;;;;5099096;28;20107;-64
2021/06/05 06:58:49;;;;;;;19.67;14.23;;;21.20;99.90;;;;;;5097958;28;20089;-64
2021/06/05 07:01:19;;;;;;;16.60;13.70;;;21.20;99.90;;;;;;5097805;28;20111;-64
2021/06/05 07:03:46;;;;;;;18.27;14.63;;;21.20;99.90;;;;;;5098441;28;20024;-64
2021/06/05 07:06:15;;;;;;;21.98;13.90;;;21.20;99.90;;;;;;5097842;28;20024;-64
2021/06/05 07:08:43;;;;;;;22.08;14.90;;;21.20;99.90;;;;;;5097646;28;20031;-64
2021/06/05 07:11:22;;;;;;;22.65;14.43;;;21.30;99.90;;;;;;5098319;28;20102;-64
2021/06/05 07:13:50;;;;;;;19.15;14.60;;;21.40;99.90;;;;;;5098178;28;20016;-64
2021/06/05 07:16:19;;;;;;;20.70;14.52;;;21.40;99.90;;;;;;5098426;28;20024;-64
2021/06/05 07:18:48;;;;;;;20.88;15.10;;;21.50;99.90;;;;;;5098318;28;20036;-64
2021/06/05 07:21:16;;;;;;;20.98;14.00;;;21.60;99.90;;;;;;5098909;28;20024;-64
2021/06/05 07:23:45;;;;;;;19.10;13.95;;;21.70;99.90;;;;;;5098404;28;20035;-64
2021/06/05 07:26:24;;;;;;;20.80;15.00;;;21.70;99.90;;;;;;5098112;28;20040;-64
2021/06/05 07:28:56;;;;;;;17.42;14.50;;;21.70;99.90;;;;;;5098116;28;20039;-64
2021/06/05 07:31:33;;;;;;;22.17;14.43;;;21.80;99.90;;;;;;5098496;28;20012;-64
2021/06/05 07:34:02;;;;;;;18.50;14.90;;;21.80;99.90;;;;;;5080717;28;20012;-64
2021/06/05 07:36:37;;;;;;;21.17;15.10;;;21.90;99.90;;;;;;5097195;28;20024;-64
2021/06/05 07:39:06;;;;;;;19.10;13.80;;;21.90;99.90;;;;;;5097242;28;20023;-64
2021/06/05 07:41:34;;;;;;;18.92;13.93;;;22.00;99.90;;;;;;5097348;28;20066;-64
2021/06/05 07:44:01;;;;;;;17.75;12.38;;;22.00;99.90;;;;;;5097683;28;20030;-64
2021/06/05 07:46:29;;;;;;;23.33;13.63;;;22.10;99.90;;;;;;5097633;28;20077;-64
2021/06/05 07:48:57;;;;;;;16.88;12.45;;;22.30;99.90;;;;;;5097532;28;20020;-64
2021/06/05 07:51:25;;;;;;;19.25;12.57;;;22.40;99.90;;;;;;5097208;28;20021;-64
2021/06/05 07:53:53;;;;;;;18.08;12.27;;;22.60;99.90;;;;;;5097682;28;20062;-64
2021/06/05 07:56:21;;;;;;;20.40;13.02;;;22.70;99.90;;;;;;5098680;28;20020;-64
2021/06/05 07:58:49;;;;;;;15.15;11.38;;;22.90;99.90;;;;;;5098286;28;20024;-64
2021/06/05 08:01:16;;;;;;;14.90;11.63;;;23.10;99.90;;;;;;5098461;28;20024;-64
2021/06/05 08:03:44;;;;;;;16.70;12.85;;;23.30;99.90;;;;;;5098333;28;20107;-64
2021/06/05 08:06:13;;;;;;;14.00;11.18;;;23.50;99.90;;;;;;5097562;28;20408;-64
2021/06/05 08:08:40;;;;;;;15.70;10.80;;;23.70;99.90;;;;;;5097635;28;20081;-64
2021/06/05 08:11:07;;;;;;;19.60;12.00;;;23.90;99.90;;;;;;5097907;28;20051;-64
2021/06/05 08:13:35;;;;;;;13.80;10.50;;;24.00;99.90;;;;;;5096587;28;20016;-64
2021/06/05 08:16:02;;;;;;;13.15;9.48;;;24.10;99.90;;;;;;5078562;28;20031;-64
2021/06/05 08:18:30;;;;;;;16.20;9.20;;;24.10;99.90;;;;;;5078538;28;20028;-64
2021/06/05 08:21:01;;;;;;;13.13;10.75;;;24.20;99.90;;;;;;5078604;28;20028;-64
2021/06/05 08:23:33;;;;;;;16.83;10.75;;;24.30;99.90;;;;;;5078510;28;20114;-62
2021/06/05 08:26:02;;;;;;;16.67;10.70;;;24.30;99.90;;;;;;5096288;28;20048;-62
2021/06/05 08:28:35;;;;;;;13.77;11.15;;;24.30;99.90;;;;;;5096915;28;20028;-62
2021/06/05 08:31:09;;;;;;;15.85;12.65;;;24.30;99.90;;;;;;5097246;28;20485;-62
2021/06/05 08:33:37;;;;;;;17.58;13.38;;;24.30;99.90;;;;;;5097942;28;20024;-62
2021/06/05 08:36:07;;;;;;;20.13;14.65;;;24.30;99.90;;;;;;5097474;28;20016;-62
2021/06/05 08:38:40;;;;;;;17.08;14.02;;;24.40;99.90;;;;;;5097349;28;20055;-62
2021/06/05 08:41:19;;;;;;;19.75;14.23;;;24.40;99.90;;;;;;5097385;28;20024;-62
2021/06/05 08:44:14;;;;;;;18.92;14.73;;;24.50;99.90;;;;;;5079427;28;20098;-62
2021/06/05 08:46:45;;;;;;;22.60;13.90;;;24.60;99.90;;;;;;5097635;28;20023;-62
2021/06/05 08:49:21;;;;;;;19.67;13.75;;;24.80;99.90;;;;;;5078526;28;20110;-63
2021/06/05 08:52:31;;;;;;;14.85;12.23;;;25.10;99.90;;;;;;5078757;28;20024;-63
2021/06/05 08:55:07;;;;;;;22.77;14.57;;;25.20;99.90;;;;;;5041639;28;20055;-64
2021/06/05 08:57:47;;;;;;;16.27;12.25;;;25.30;99.90;;;;;;5078566;28;20020;-62
2021/06/05 09:00:38;;;;;;;17.00;14.60;;;25.30;99.90;;;;;;5096028;28;20051;-64
2021/06/05 09:03:19;;;;;;;19.10;13.88;;;25.20;99.90;;;;;;5096108;28;20427;-63
2021/06/05 09:05:56;;;;;;;21.83;16.00;;;24.90;99.90;;;;;;5078350;28;20052;-63
2021/06/05 09:08:25;;;;;;;20.55;17.00;;;24.70;99.90;;;;;;5096663;28;20355;-63
2021/06/05 09:10:58;;;;;;;16.85;13.73;;;24.50;99.90;;;;;;5097603;28;20027;-63
2021/06/05 09:13:27;;;;;;;14.75;11.05;;;24.40;99.90;;;;;;5079209;28;20362;-63
2021/06/05 09:16:25;;;;;;;13.10;10.95;;;24.50;99.90;;;;;;5097257;28;20020;-63
2021/06/05 09:19:02;;;;;;;11.07;9.48;;;24.50;99.90;;;;;;5101359;28;20335;-64
2021/06/05 09:21:43;;;;;;;13.32;10.18;;;24.70;99.90;;;;;;5101240;28;20020;-64
2021/06/05 09:24:13;;;;;;;11.52;9.30;;;24.80;99.90;;;;;;5100415;28;20323;-64
2021/06/05 09:26:45;;;;;;;11.43;10.23;;;24.80;99.90;;;;;;5100257;28;20312;-64
2021/06/05 09:29:19;;;;;;;14.25;11.40;;;24.80;99.90;;;;;;5099785;28;20459;-64
2021/06/05 09:32:10;;;;;;;17.00;14.63;;;24.90;99.90;;;;;;5100120;28;20358;-62
2021/06/05 09:34:43;;;;;;;17.33;12.27;;;25.10;99.90;;;;;;5099585;28;20020;-63
2021/06/05 09:37:32;;;;;;;16.83;13.75;;;25.10;99.90;;;;;;5082553;28;20020;-64
2021/06/05 09:40:23;;;;;;;14.65;12.25;;;25.20;99.90;;;;;;5099506;28;20027;-63
2021/06/05 09:42:58;;;;;;;15.27;11.77;;;25.10;99.90;;;;;;5081519;28;20022;-62
2021/06/05 09:45:37;;;;;;;15.50;11.32;;;25.00;99.90;;;;;;5100264;28;20027;-63
2021/06/05 09:48:39;;;;;;;14.13;10.88;;;24.80;99.90;;;;;;5100747;28;20052;-62
2021/06/05 09:51:37;;;;;;;19.17;12.90;;;24.50;99.90;;;;;;5083149;28;20412;-62
2021/06/05 09:54:36;;;;;;;16.45;13.00;;;24.30;99.90;;;;;;5100564;28;20028;-63
2021/06/05 09:57:30;;;;;;;17.00;13.73;;;24.00;99.90;;;;;;5100037;28;20016;-63
2021/06/05 10:00:37;;;;;;;20.75;15.20;;;23.70;99.90;;;;;;5100491;28;20035;-63
2021/06/05 10:03:26;;;;;;;20.35;16.02;;;23.50;99.90;;;;;;5088553;28;20127;-63
2021/06/05 10:05:54;;;;;;;18.08;14.75;;;23.20;99.90;;;;;;5099771;28;20016;-63
2021/06/05 10:08:29;;;;;;;21.35;17.17;;;23.10;99.90;;;;;;5098762;28;20024;-63
2021/06/05 10:11:10;;;;;;;23.58;17.35;;;23.00;99.90;;;;;;5099460;28;20020;-63
2021/06/05 10:13:42;;;;;;;26.88;19.85;;;23.00;99.90;;;;;;5099548;28;20328;-63
2021/06/05 10:16:21;;;;;;;24.52;18.60;;;23.00;99.90;;;;;;5099312;28;20027;-63
2021/06/05 10:19:08;;;;;;;23.40;18.85;;;23.00;99.90;;;;;;5098769;28;20028;-65
2021/06/05 10:21:41;;;;;;;26.92;18.85;;;23.10;99.90;;;;;;5081294;28;20024;-63
2021/06/05 10:24:32;;;;;;;25.05;19.45;;;23.30;99.90;;;;;;5099731;28;20035;-64
2021/06/05 10:27:11;;;;;;;25.23;20.27;;;23.40;99.90;;;;;;5059352;28;20429;-63
2021/06/05 10:29:53;;;;;;;25.77;21.23;;;23.70;99.90;;;;;;5058442;28;20021;-63
2021/06/05 10:32:35;;;;;;;29.83;23.67;;;23.90;99.90;;;;;;5059758;28;20028;-63
2021/06/05 10:35:16;;;;;;;27.85;21.90;;;24.10;99.90;;;;;;5059350;28;20021;-62
2021/06/05 10:37:44;;;;;;;25.83;21.80;;;24.30;99.90;;;;;;5059233;28;20104;-62
2021/06/05 10:40:27;;;;;;;25.50;21.45;;;24.40;99.90;;;;;;5058074;28;20369;-62
2021/06/05 10:42:55;;;;;;;26.67;21.90;;;24.70;99.90;;;;;;5057108;28;20017;-62
2021/06/05 10:45:39;;;;;;;25.10;21.08;;;24.70;99.90;;;;;;5057995;28;20025;-63
2021/06/05 10:48:19;;;;;;;23.23;19.95;;;24.90;99.90;;;;;;5057948;28;20060;-63
2021/06/05 10:51:01;;;;;;;24.88;18.77;;;25.00;99.90;;;;;;5056867;28;20104;-63
2021/06/05 10:53:51;;;;;;;22.38;19.73;;;25.20;99.90;;;;;;5058239;28;20040;-64
2021/06/05 10:56:59;;;;;;;26.33;20.08;;;25.40;99.90;;;;;;5057729;28;20047;-63
2021/06/05 10:59:41;;;;;;;21.48;18.05;;;25.80;99.90;;;;;;5058066;28;20112;-63
2021/06/05 11:02:30;;;;;;;21.33;18.50;;;26.00;99.90;;;;;;5058883;28;20290;-63
2021/06/05 11:04:58;;;;;;;25.25;21.58;;;26.00;99.90;;;;;;5058469;28;20033;-63
2021/06/05 11:07:33;;;;;;;28.40;23.88;;;25.90;99.60;;;;;;5058617;28;20027;-63
2021/06/05 11:10:06;;;;;;;33.50;24.92;;;25.70;99.80;;;;;;5058921;28;20028;-63
2021/06/05 11:12:34;;;;;;;31.90;26.55;;;25.60;99.90;;;;;;5058621;28;20053;-63
2021/06/05 11:15:06;;;;;;;29.13;25.95;;;25.30;99.90;;;;;;5058575;28;20074;-63
2021/06/05 11:17:39;;;;;;;31.92;25.75;;;25.30;99.90;;;;;;5057416;28;20013;-64
2021/06/05 11:20:10;;;;;;;28.90;25.08;;;25.20;99.90;;;;;;5057415;28;20025;-64
2021/06/05 11:23:12;;;;;;;28.42;25.33;;;25.20;99.90;;;;;;5057509;28;20028;-63
2021/06/05 11:25:45;;;;;;;31.38;25.80;;;25.20;99.90;;;;;;5067560;28;20078;-64
2021/06/05 11:28:40;;;;;;;33.70;26.83;;;25.30;99.90;;;;;;5097741;28;20149;-63
2021/06/05 11:31:52;;;;;;;34.33;26.38;;;25.40;99.90;;;;;;5096919;28;20123;-63
2021/06/05 11:34:46;;;;;;;27.35;23.83;;;25.60;99.90;;;;;;5079281;28;20020;-63
2021/06/05 11:37:16;;;;;;;28.33;23.52;;;25.90;99.30;;;;;;5060180;28;20039;-64
2021/06/05 11:39:51;;;;;;;27.52;23.90;;;26.30;99.10;;;;;;5098584;28;20024;-63
2021/06/05 11:42:22;;;;;;;28.02;24.15;;;26.60;97.80;;;;;;5098097;28;20028;-64
2021/06/05 11:44:59;;;;;;;28.45;24.48;;;26.90;96.70;;;;;;5097974;28;20059;-64
2021/06/05 11:47:27;;;;;;;30.70;25.38;;;26.90;96.60;;;;;;5098666;28;20033;-64
2021/06/05 11:50:10;;;;;;;27.88;23.65;;;26.90;96.70;;;;;;5098490;28;20052;-63
2021/06/05 11:52:42;;;;;;;32.55;24.15;;;27.00;96.80;;;;;;5098018;28;20032;-63
2021/06/05 11:55:21;;;;;;;29.10;24.00;;;27.30;96.70;;;;;;5097460;28;20043;-63
2021/06/05 11:58:03;;;;;;;26.73;23.83;;;27.40;96.00;;;;;;5097881;28;20335;-64
2021/06/05 12:00:39;;;;;;;30.10;23.40;;;27.40;95.40;;;;;;5097414;28;20016;-64
2021/06/05 12:03:26;;;;;;;25.08;21.70;;;27.40;95.20;;;;;;5096774;28;20024;-64
2021/06/05 12:06:14;;;;;;;26.23;22.73;;;27.50;95.50;;;;;;5097375;28;20020;-63
2021/06/05 12:08:41;;;;;;;25.80;22.85;;;27.40;94.50;;;;;;5097385;28;20098;-63
2021/06/05 12:11:36;;;;;;;26.35;23.45;;;27.30;94.80;;;;;;5097276;28;20514;-63
2021/06/05 12:17:38;;;;;;;31.33;24.15;;;26.80;95.80;;;;;;5097635;28;20025;-63
2021/06/05 12:20:22;;;;;;;27.75;24.63;;;26.50;96.10;;;;;;5097820;28;20362;-63
2021/06/05 12:23:17;;;;;;;27.60;23.80;;;26.50;96.40;;;;;;5079686;28;20024;-63
2021/06/05 12:25:46;;;;;;;28.00;22.92;;;26.50;95.80;;;;;;5076069;28;20064;-63
2021/06/05 12:28:29;;;;;;;26.33;22.35;;;26.60;95.50;;;;;;5077309;28;20067;-63
2021/06/05 12:31:13;;;;;;;25.55;22.48;;;26.70;94.80;;;;;;5075969;28;20032;-63
2021/06/05 12:33:42;;;;;;;26.27;21.95;;;26.80;95.10;;;;;;5077069;28;20035;-63
2021/06/05 12:36:31;;;;;;;28.75;21.17;;;27.00;94.90;;;;;;5076868;28;20312;-63
2021/06/05 12:39:11;;;;;;;21.52;18.77;;;27.30;94.60;;;;;;5076228;28;20082;-64
2021/06/05 12:41:39;;;;;;;19.52;16.58;;;27.60;93.60;;;;;;5076723;28;20039;-65
2021/06/05 12:44:08;;;;;;;16.75;14.45;;;27.90;93.00;;;;;;5076903;28;20078;-63
2021/06/05 12:46:38;;;;;;;17.95;14.57;;;27.90;92.00;;;;;;5076212;28;20047;-64
2021/06/05 12:49:09;;;;;;;17.27;14.00;;;27.90;90.70;;;;;;5076672;28;20029;-63
2021/06/05 12:51:50;;;;;;;15.55;12.40;;;27.80;91.60;;;;;;5076212;28;20024;-63
2021/06/05 12:54:31;;;;;;;16.92;12.77;;;27.70;90.30;;;;;;5081210;28;20141;-63
2021/06/05 12:57:18;;;;;;;18.40;13.10;;;27.50;90.70;;;;;;5081019;28;20021;-63
2021/06/05 12:59:46;;;;;;;15.38;12.60;;;27.40;90.70;;;;;;5080937;28;20048;-63
2021/06/05 13:02:40;;;;;;;18.25;13.48;;;27.40;91.40;;;;;;5080861;28;20024;-63
2021/06/05 13:05:18;;;;;;;13.20;10.82;;;27.70;91.10;;;;;;5077176;28;20032;-63
2021/06/05 13:07:49;;;;;;;13.23;10.98;;;28.00;91.10;;;;;;5080709;28;20538;-63
2021/06/05 13:10:33;;;;;;;15.85;12.23;;;28.20;90.50;;;;;;5080675;28;20017;-63